Weather at Washington Dulles International Airport

Public forecast

Using degrees Fahrenheit for public forecast. Weather courtesy of forecast.io.

Current aviation weather report (METAR) for Washington Dulles International Airport

Retrieved 2021/04/20 21:52 UTC (1 hour ago):

KIAD 202152Z 21013G24KT 10SM FEW090 23/04 A2984 RMK AO2 PK WND 18026/2121 SLP103 T02330039

Aviation forecast (TAF) for Washington Dulles International Airport

Retrieved 2021/04/20 18:45 UTC (4 hours ago):

TAF KIAD 201742Z 2018/2124 18012G20KT P6SM SCT250 FM210000 18009KT P6SM SCT060 BKN130 FM211300 22013G21KT P6SM BKN060 BKN140 FM211500 23014G23KT 6SM -SHRA BR OVC050 FM211700 30018G31KT P6SM BKN060 FM212100 31021G34KT P6SM FEW050 FEW110